sensor_id;sensor_type;location;lat;lon;timestamp;P1;durP1;ratioP1;P2;durP2;ratioP2
5762;SDS011;2906;53.282;9.508;2022-11-18T00:01:05;23.73;;;9.32;;
5762;SDS011;2906;53.282;9.508;2022-11-18T00:02:08;23.92;;;10.45;;
5762;SDS011;2906;53.282;9.508;2022-11-18T00:03:10;19.63;;;9.40;;
5762;SDS011;2906;53.282;9.508;2022-11-18T00:04:11;26.10;;;8.70;;
5762;SDS011;2906;53.282;9.508;2022-11-18T00:05:14;18.95;;;8.50;;
5762;SDS011;2906;53.282;9.508;2022-11-18T00:06:16;19.23;;;8.65;;
5762;SDS011;2906;53.282;9.508;2022-11-18T00:07:19;19.20;;;9.38;;
5762;SDS011;2906;53.282;9.508;2022-11-18T00:08:20;18.40;;;8.60;;
5762;SDS011;2906;53.282;9.508;2022-11-18T00:09:23;18.45;;;9.60;;
5762;SDS011;2906;53.282;9.508;2022-11-18T00:10:24;18.15;;;8.10;;
5762;SDS011;2906;53.282;9.508;2022-11-18T00:11:26;17.77;;;7.88;;
5762;SDS011;2906;53.282;9.508;2022-11-18T00:12:42;16.75;;;8.63;;
5762;SDS011;2906;53.282;9.508;2022-11-18T00:13:58;19.65;;;9.43;;
5762;SDS011;2906;53.282;9.508;2022-11-18T00:15:14;18.33;;;8.80;;
5762;SDS011;2906;53.282;9.508;2022-11-18T00:16:17;20.52;;;9.80;;
5762;SDS011;2906;53.282;9.508;2022-11-18T00:17:19;17.23;;;8.35;;
5762;SDS011;2906;53.282;9.508;2022-11-18T00:18:22;18.55;;;8.40;;
5762;SDS011;2906;53.282;9.508;2022-11-18T00:19:24;18.52;;;8.52;;
5762;SDS011;2906;53.282;9.508;2022-11-18T00:20:26;20.02;;;9.15;;
5762;SDS011;2906;53.282;9.508;2022-11-18T00:21:28;20.25;;;8.70;;
5762;SDS011;2906;53.282;9.508;2022-11-18T00:22:30;18.80;;;8.30;;
5762;SDS011;2906;53.282;9.508;2022-11-18T00:23:31;19.50;;;8.77;;
5762;SDS011;2906;53.282;9.508;2022-11-18T00:24:33;20.63;;;8.75;;
5762;SDS011;2906;53.282;9.508;2022-11-18T00:25:35;16.35;;;7.80;;
5762;SDS011;2906;53.282;9.508;2022-11-18T00:26:37;17.23;;;7.63;;
5762;SDS011;2906;53.282;9.508;2022-11-18T00:27:38;20.50;;;7.78;;
5762;SDS011;2906;53.282;9.508;2022-11-18T00:28:41;16.35;;;7.38;;
5762;SDS011;2906;53.282;9.508;2022-11-18T00:29:42;15.55;;;7.57;;
5762;SDS011;2906;53.282;9.508;2022-11-18T00:30:44;17.90;;;8.23;;
5762;SDS011;2906;53.282;9.508;2022-11-18T00:31:46;18.08;;;8.65;;
5762;SDS011;2906;53.282;9.508;2022-11-18T00:32:49;19.23;;;9.30;;
5762;SDS011;2906;53.282;9.508;2022-11-18T00:33:51;15.55;;;7.22;;
5762;SDS011;2906;53.282;9.508;2022-11-18T00:34:53;18.75;;;8.38;;
5762;SDS011;2906;53.282;9.508;2022-11-18T00:35:54;18.40;;;9.00;;
5762;SDS011;2906;53.282;9.508;2022-11-18T00:36:57;17.08;;;7.97;;
5762;SDS011;2906;53.282;9.508;2022-11-18T00:37:58;19.00;;;8.50;;
5762;SDS011;2906;53.282;9.508;2022-11-18T00:39:00;19.45;;;8.43;;
5762;SDS011;2906;53.282;9.508;2022-11-18T00:40:02;17.02;;;8.80;;
5762;SDS011;2906;53.282;9.508;2022-11-18T00:41:05;15.80;;;7.30;;
5762;SDS011;2906;53.282;9.508;2022-11-18T00:42:07;18.08;;;7.88;;
5762;SDS011;2906;53.282;9.508;2022-11-18T00:43:23;17.27;;;7.60;;
5762;SDS011;2906;53.282;9.508;2022-11-18T00:44:25;19.38;;;8.73;;
5762;SDS011;2906;53.282;9.508;2022-11-18T00:45:26;17.00;;;8.43;;
5762;SDS011;2906;53.282;9.508;2022-11-18T00:46:29;15.55;;;7.75;;
5762;SDS011;2906;53.282;9.508;2022-11-18T00:47:30;16.42;;;7.78;;
5762;SDS011;2906;53.282;9.508;2022-11-18T00:48:33;17.65;;;7.50;;
5762;SDS011;2906;53.282;9.508;2022-11-18T00:49:35;17.23;;;7.40;;
5762;SDS011;2906;53.282;9.508;2022-11-18T00:50:37;16.85;;;7.55;;
5762;SDS011;2906;53.282;9.508;2022-11-18T00:51:38;13.60;;;7.03;;
5762;SDS011;2906;53.282;9.508;2022-11-18T00:52:41;15.15;;;7.05;;
5762;SDS011;2906;53.282;9.508;2022-11-18T00:53:42;17.25;;;8.07;;
5762;SDS011;2906;53.282;9.508;2022-11-18T00:54:44;17.58;;;8.00;;
5762;SDS011;2906;53.282;9.508;2022-11-18T00:55:46;16.45;;;7.07;;
5762;SDS011;2906;53.282;9.508;2022-11-18T00:56:49;18.15;;;8.55;;
5762;SDS011;2906;53.282;9.508;2022-11-18T00:57:51;14.70;;;6.75;;
5762;SDS011;2906;53.282;9.508;2022-11-18T00:58:54;18.65;;;7.80;;
5762;SDS011;2906;53.282;9.508;2022-11-18T00:59:55;16.00;;;7.50;;
5762;SDS011;2906;53.282;9.508;2022-11-18T01:00:58;16.90;;;7.80;;
5762;SDS011;2906;53.282;9.508;2022-11-18T01:01:59;15.90;;;6.80;;
5762;SDS011;2906;53.282;9.508;2022-11-18T01:03:01;16.17;;;7.72;;
5762;SDS011;2906;53.282;9.508;2022-11-18T01:04:04;18.10;;;7.88;;
5762;SDS011;2906;53.282;9.508;2022-11-18T01:05:07;17.35;;;8.38;;
5762;SDS011;2906;53.282;9.508;2022-11-18T01:06:08;14.23;;;6.40;;
5762;SDS011;2906;53.282;9.508;2022-11-18T01:07:11;17.42;;;8.02;;
5762;SDS011;2906;53.282;9.508;2022-11-18T01:08:12;15.20;;;8.00;;
5762;SDS011;2906;53.282;9.508;2022-11-18T01:09:15;16.23;;;7.60;;
5762;SDS011;2906;53.282;9.508;2022-11-18T01:10:16;16.17;;;7.75;;
5762;SDS011;2906;53.282;9.508;2022-11-18T01:11:19;15.52;;;7.60;;
5762;SDS011;2906;53.282;9.508;2022-11-18T01:12:35;17.63;;;7.85;;
5762;SDS011;2906;53.282;9.508;2022-11-18T01:13:51;15.00;;;7.78;;
5762;SDS011;2906;53.282;9.508;2022-11-18T01:14:53;21.00;;;8.32;;
5762;SDS011;2906;53.282;9.508;2022-11-18T01:15:56;18.23;;;7.80;;
5762;SDS011;2906;53.282;9.508;2022-11-18T01:16:57;16.85;;;7.95;;
5762;SDS011;2906;53.282;9.508;2022-11-18T01:18:00;18.45;;;8.23;;
5762;SDS011;2906;53.282;9.508;2022-11-18T01:19:01;17.33;;;8.00;;
5762;SDS011;2906;53.282;9.508;2022-11-18T01:20:05;16.17;;;7.70;;
5762;SDS011;2906;53.282;9.508;2022-11-18T01:21:06;19.35;;;8.32;;
5762;SDS011;2906;53.282;9.508;2022-11-18T01:22:09;19.15;;;8.40;;
5762;SDS011;2906;53.282;9.508;2022-11-18T01:23:10;17.23;;;8.63;;
5762;SDS011;2906;53.282;9.508;2022-11-18T01:24:12;16.45;;;8.27;;
5762;SDS011;2906;53.282;9.508;2022-11-18T01:25:14;17.98;;;8.10;;
5762;SDS011;2906;53.282;9.508;2022-11-18T01:26:16;18.30;;;8.05;;
5762;SDS011;2906;53.282;9.508;2022-11-18T01:27:18;19.30;;;7.82;;
5762;SDS011;2906;53.282;9.508;2022-11-18T01:28:20;18.88;;;8.27;;
5762;SDS011;2906;53.282;9.508;2022-11-18T01:29:21;17.38;;;7.47;;
5762;SDS011;2906;53.282;9.508;2022-11-18T01:30:24;17.95;;;8.52;;
5762;SDS011;2906;53.282;9.508;2022-11-18T01:31:25;16.65;;;8.40;;
5762;SDS011;2906;53.282;9.508;2022-11-18T01:32:27;18.13;;;8.73;;
5762;SDS011;2906;53.282;9.508;2022-11-18T01:33:29;18.25;;;8.48;;
5762;SDS011;2906;53.282;9.508;2022-11-18T01:34:31;17.50;;;8.48;;
5762;SDS011;2906;53.282;9.508;2022-11-18T01:35:34;17.60;;;8.13;;
5762;SDS011;2906;53.282;9.508;2022-11-18T01:36:36;18.60;;;8.40;;
5762;SDS011;2906;53.282;9.508;2022-11-18T01:37:38;23.27;;;8.85;;
5762;SDS011;2906;53.282;9.508;2022-11-18T01:38:40;17.73;;;8.05;;
5762;SDS011;2906;53.282;9.508;2022-11-18T01:39:42;17.35;;;8.68;;
5762;SDS011;2906;53.282;9.508;2022-11-18T01:40:44;20.35;;;9.52;;
5762;SDS011;2906;53.282;9.508;2022-11-18T01:41:45;19.40;;;9.18;;
5762;SDS011;2906;53.282;9.508;2022-11-18T01:42:47;20.13;;;9.25;;
5762;SDS011;2906;53.282;9.508;2022-11-18T01:43:50;18.38;;;8.50;;
5762;SDS011;2906;53.282;9.508;2022-11-18T01:44:56;19.77;;;9.23;;
5762;SDS011;2906;53.282;9.508;2022-11-18T01:45:58;16.85;;;8.00;;
5762;SDS011;2906;53.282;9.508;2022-11-18T01:47:00;18.58;;;9.07;;
5762;SDS011;2906;53.282;9.508;2022-11-18T01:48:03;19.67;;;9.40;;
5762;SDS011;2906;53.282;9.508;2022-11-18T01:49:07;17.40;;;8.18;;
5762;SDS011;2906;53.282;9.508;2022-11-18T01:50:09;19.13;;;9.02;;
5762;SDS011;2906;53.282;9.508;2022-11-18T01:51:15;17.27;;;8.45;;
5762;SDS011;2906;53.282;9.508;2022-11-18T01:52:18;18.83;;;9.00;;
5762;SDS011;2906;53.282;9.508;2022-11-18T01:53:21;17.38;;;8.13;;
5762;SDS011;2906;53.282;9.508;2022-11-18T01:54:24;25.67;;;9.20;;
5762;SDS011;2906;53.282;9.508;2022-11-18T01:55:28;18.88;;;9.68;;
5762;SDS011;2906;53.282;9.508;2022-11-18T01:56:32;21.65;;;9.18;;
5762;SDS011;2906;53.282;9.508;2022-11-18T01:57:37;21.33;;;9.18;;
5762;SDS011;2906;53.282;9.508;2022-11-18T01:58:40;20.25;;;9.10;;
5762;SDS011;2906;53.282;9.508;2022-11-18T01:59:45;20.83;;;9.18;;
5762;SDS011;2906;53.282;9.508;2022-11-18T02:00:47;18.25;;;8.55;;
5762;SDS011;2906;53.282;9.508;2022-11-18T02:01:50;22.85;;;9.23;;
5762;SDS011;2906;53.282;9.508;2022-11-18T02:02:51;18.40;;;9.70;;
5762;SDS011;2906;53.282;9.508;2022-11-18T02:03:53;21.48;;;9.38;;
5762;SDS011;2906;53.282;9.508;2022-11-18T02:04:55;18.48;;;8.77;;
5762;SDS011;2906;53.282;9.508;2022-11-18T02:05:59;19.38;;;9.25;;
5762;SDS011;2906;53.282;9.508;2022-11-18T02:07:02;18.23;;;8.27;;
5762;SDS011;2906;53.282;9.508;2022-11-18T02:08:04;16.20;;;8.00;;
5762;SDS011;2906;53.282;9.508;2022-11-18T02:09:06;19.23;;;8.93;;
5762;SDS011;2906;53.282;9.508;2022-11-18T02:10:14;19.42;;;8.93;;
5762;SDS011;2906;53.282;9.508;2022-11-18T02:11:17;17.10;;;8.52;;
5762;SDS011;2906;53.282;9.508;2022-11-18T02:12:33;19.92;;;8.95;;
5762;SDS011;2906;53.282;9.508;2022-11-18T02:13:36;22.83;;;8.70;;
5762;SDS011;2906;53.282;9.508;2022-11-18T02:14:37;17.05;;;8.55;;
5762;SDS011;2906;53.282;9.508;2022-11-18T02:15:45;20.15;;;8.45;;
5762;SDS011;2906;53.282;9.508;2022-11-18T02:16:53;17.67;;;7.90;;
5762;SDS011;2906;53.282;9.508;2022-11-18T02:17:57;17.20;;;8.40;;
5762;SDS011;2906;53.282;9.508;2022-11-18T02:19:00;17.27;;;8.80;;
5762;SDS011;2906;53.282;9.508;2022-11-18T02:20:11;19.17;;;9.02;;
5762;SDS011;2906;53.282;9.508;2022-11-18T02:21:20;16.55;;;7.68;;
5762;SDS011;2906;53.282;9.508;2022-11-18T02:22:33;17.77;;;7.85;;
5762;SDS011;2906;53.282;9.508;2022-11-18T02:24:55;16.05;;;8.13;;
5762;SDS011;2906;53.282;9.508;2022-11-18T02:26:04;18.55;;;8.80;;
5762;SDS011;2906;53.282;9.508;2022-11-18T02:27:19;18.42;;;8.65;;
5762;SDS011;2906;53.282;9.508;2022-11-18T02:28:28;15.90;;;8.35;;
5762;SDS011;2906;53.282;9.508;2022-11-18T02:29:38;17.63;;;8.07;;
5762;SDS011;2906;53.282;9.508;2022-11-18T02:30:43;14.93;;;8.30;;
5762;SDS011;2906;53.282;9.508;2022-11-18T02:31:49;17.35;;;7.75;;
5762;SDS011;2906;53.282;9.508;2022-11-18T02:32:53;19.08;;;8.70;;
5762;SDS011;2906;53.282;9.508;2022-11-18T02:33:58;18.35;;;8.82;;
5762;SDS011;2906;53.282;9.508;2022-11-18T02:35:02;16.00;;;7.93;;
5762;SDS011;2906;53.282;9.508;2022-11-18T02:36:08;18.77;;;9.35;;
5762;SDS011;2906;53.282;9.508;2022-11-18T02:37:14;19.17;;;9.32;;
5762;SDS011;2906;53.282;9.508;2022-11-18T02:38:18;18.10;;;8.57;;
5762;SDS011;2906;53.282;9.508;2022-11-18T02:39:23;19.27;;;8.85;;
5762;SDS011;2906;53.282;9.508;2022-11-18T02:40:30;20.30;;;8.75;;
5762;SDS011;2906;53.282;9.508;2022-11-18T02:41:34;18.33;;;8.52;;
5762;SDS011;2906;53.282;9.508;2022-11-18T02:42:36;19.95;;;9.02;;
5762;SDS011;2906;53.282;9.508;2022-11-18T02:43:40;20.55;;;8.98;;
5762;SDS011;2906;53.282;9.508;2022-11-18T02:44:46;18.23;;;8.63;;
5762;SDS011;2906;53.282;9.508;2022-11-18T02:45:52;19.40;;;9.23;;
5762;SDS011;2906;53.282;9.508;2022-11-18T02:46:55;17.65;;;8.63;;
5762;SDS011;2906;53.282;9.508;2022-11-18T02:48:00;20.13;;;8.98;;
5762;SDS011;2906;53.282;9.508;2022-11-18T02:49:05;20.00;;;9.25;;
5762;SDS011;2906;53.282;9.508;2022-11-18T02:50:09;20.23;;;9.05;;
5762;SDS011;2906;53.282;9.508;2022-11-18T02:51:11;19.58;;;8.90;;
5762;SDS011;2906;53.282;9.508;2022-11-18T02:52:14;21.33;;;9.15;;
5762;SDS011;2906;53.282;9.508;2022-11-18T02:53:18;19.08;;;9.30;;
5762;SDS011;2906;53.282;9.508;2022-11-18T02:54:20;19.88;;;9.70;;
5762;SDS011;2906;53.282;9.508;2022-11-18T02:55:23;23.08;;;9.90;;
5762;SDS011;2906;53.282;9.508;2022-11-18T02:56:27;19.50;;;9.35;;
5762;SDS011;2906;53.282;9.508;2022-11-18T02:57:29;17.33;;;9.02;;
5762;SDS011;2906;53.282;9.508;2022-11-18T02:58:32;21.83;;;10.10;;
5762;SDS011;2906;53.282;9.508;2022-11-18T02:59:33;17.77;;;9.07;;
5762;SDS011;2906;53.282;9.508;2022-11-18T03:00:37;20.45;;;10.00;;
5762;SDS011;2906;53.282;9.508;2022-11-18T03:01:38;18.38;;;8.90;;
5762;SDS011;2906;53.282;9.508;2022-11-18T03:02:42;20.27;;;9.93;;
5762;SDS011;2906;53.282;9.508;2022-11-18T03:03:43;17.50;;;8.85;;
5762;SDS011;2906;53.282;9.508;2022-11-18T03:04:46;20.65;;;10.13;;
5762;SDS011;2906;53.282;9.508;2022-11-18T03:05:50;20.27;;;9.38;;
5762;SDS011;2906;53.282;9.508;2022-11-18T03:06:55;18.83;;;8.93;;
5762;SDS011;2906;53.282;9.508;2022-11-18T03:07:59;21.13;;;9.27;;
5762;SDS011;2906;53.282;9.508;2022-11-18T03:09:06;18.40;;;9.25;;
5762;SDS011;2906;53.282;9.508;2022-11-18T03:10:09;22.40;;;9.80;;
5762;SDS011;2906;53.282;9.508;2022-11-18T03:11:13;19.27;;;9.75;;
5762;SDS011;2906;53.282;9.508;2022-11-18T03:12:17;18.35;;;8.40;;
5762;SDS011;2906;53.282;9.508;2022-11-18T03:13:22;21.13;;;8.73;;
5762;SDS011;2906;53.282;9.508;2022-11-18T03:14:26;22.50;;;9.65;;
5762;SDS011;2906;53.282;9.508;2022-11-18T03:15:31;22.95;;;10.18;;
5762;SDS011;2906;53.282;9.508;2022-11-18T03:16:36;18.33;;;8.02;;
5762;SDS011;2906;53.282;9.508;2022-11-18T03:17:43;21.30;;;9.63;;
5762;SDS011;2906;53.282;9.508;2022-11-18T03:18:47;22.58;;;9.85;;
5762;SDS011;2906;53.282;9.508;2022-11-18T03:19:56;19.10;;;8.90;;
5762;SDS011;2906;53.282;9.508;2022-11-18T03:21:01;22.02;;;9.32;;
5762;SDS011;2906;53.282;9.508;2022-11-18T03:22:07;19.67;;;9.35;;
5762;SDS011;2906;53.282;9.508;2022-11-18T03:23:11;19.83;;;9.35;;
5762;SDS011;2906;53.282;9.508;2022-11-18T03:24:17;22.40;;;8.88;;
5762;SDS011;2906;53.282;9.508;2022-11-18T03:25:21;18.52;;;9.02;;
5762;SDS011;2906;53.282;9.508;2022-11-18T03:26:25;19.50;;;9.57;;
5762;SDS011;2906;53.282;9.508;2022-11-18T03:27:30;22.30;;;9.50;;
5762;SDS011;2906;53.282;9.508;2022-11-18T03:28:35;19.00;;;9.30;;
5762;SDS011;2906;53.282;9.508;2022-11-18T03:29:37;20.33;;;9.73;;
5762;SDS011;2906;53.282;9.508;2022-11-18T03:30:43;19.55;;;10.00;;
5762;SDS011;2906;53.282;9.508;2022-11-18T03:31:48;19.42;;;9.02;;
5762;SDS011;2906;53.282;9.508;2022-11-18T03:32:52;17.17;;;9.10;;
5762;SDS011;2906;53.282;9.508;2022-11-18T03:33:58;19.35;;;9.32;;
5762;SDS011;2906;53.282;9.508;2022-11-18T03:35:02;18.52;;;9.30;;
5762;SDS011;2906;53.282;9.508;2022-11-18T03:36:06;17.13;;;8.63;;
5762;SDS011;2906;53.282;9.508;2022-11-18T03:37:10;20.42;;;9.02;;
5762;SDS011;2906;53.282;9.508;2022-11-18T03:38:13;18.92;;;8.25;;
5762;SDS011;2906;53.282;9.508;2022-11-18T03:39:16;17.88;;;8.93;;
5762;SDS011;2906;53.282;9.508;2022-11-18T03:40:20;19.60;;;10.18;;
5762;SDS011;2906;53.282;9.508;2022-11-18T03:41:23;22.25;;;9.80;;
5762;SDS011;2906;53.282;9.508;2022-11-18T03:42:26;21.17;;;9.93;;
5762;SDS011;2906;53.282;9.508;2022-11-18T03:43:30;21.80;;;9.50;;
5762;SDS011;2906;53.282;9.508;2022-11-18T03:44:35;21.35;;;10.13;;
5762;SDS011;2906;53.282;9.508;2022-11-18T03:45:39;18.40;;;9.18;;
5762;SDS011;2906;53.282;9.508;2022-11-18T03:46:43;18.13;;;9.25;;
5762;SDS011;2906;53.282;9.508;2022-11-18T03:47:49;26.08;;;9.30;;
5762;SDS011;2906;53.282;9.508;2022-11-18T03:48:53;18.98;;;9.35;;
5762;SDS011;2906;53.282;9.508;2022-11-18T03:49:57;18.20;;;8.85;;
5762;SDS011;2906;53.282;9.508;2022-11-18T03:51:00;20.52;;;10.70;;
5762;SDS011;2906;53.282;9.508;2022-11-18T03:52:05;20.08;;;10.70;;
5762;SDS011;2906;53.282;9.508;2022-11-18T03:53:07;19.13;;;9.07;;
5762;SDS011;2906;53.282;9.508;2022-11-18T03:54:11;19.85;;;9.75;;
5762;SDS011;2906;53.282;9.508;2022-11-18T03:55:14;19.35;;;9.10;;
5762;SDS011;2906;53.282;9.508;2022-11-18T03:56:20;19.92;;;9.77;;
5762;SDS011;2906;53.282;9.508;2022-11-18T03:57:23;21.80;;;9.93;;
5762;SDS011;2906;53.282;9.508;2022-11-18T03:58:28;20.50;;;9.73;;
5762;SDS011;2906;53.282;9.508;2022-11-18T03:59:31;20.85;;;9.75;;
5762;SDS011;2906;53.282;9.508;2022-11-18T04:00:36;21.13;;;10.15;;
5762;SDS011;2906;53.282;9.508;2022-11-18T04:01:39;21.25;;;10.50;;
5762;SDS011;2906;53.282;9.508;2022-11-18T04:02:42;21.50;;;10.27;;
5762;SDS011;2906;53.282;9.508;2022-11-18T04:03:46;21.50;;;10.38;;
5762;SDS011;2906;53.282;9.508;2022-11-18T04:04:49;22.33;;;9.40;;
5762;SDS011;2906;53.282;9.508;2022-11-18T04:05:51;18.83;;;10.48;;
5762;SDS011;2906;53.282;9.508;2022-11-18T04:06:59;21.50;;;10.35;;
5762;SDS011;2906;53.282;9.508;2022-11-18T04:08:02;24.17;;;12.15;;
5762;SDS011;2906;53.282;9.508;2022-11-18T04:09:07;24.35;;;9.18;;
5762;SDS011;2906;53.282;9.508;2022-11-18T04:10:10;23.38;;;9.70;;
5762;SDS011;2906;53.282;9.508;2022-11-18T04:11:15;23.30;;;10.32;;
5762;SDS011;2906;53.282;9.508;2022-11-18T04:12:33;20.38;;;10.48;;
5762;SDS011;2906;53.282;9.508;2022-11-18T04:13:37;22.10;;;9.85;;
5762;SDS011;2906;53.282;9.508;2022-11-18T04:14:39;21.73;;;10.10;;
5762;SDS011;2906;53.282;9.508;2022-11-18T04:15:41;22.95;;;11.05;;
5762;SDS011;2906;53.282;9.508;2022-11-18T04:16:43;21.85;;;10.80;;
5762;SDS011;2906;53.282;9.508;2022-11-18T04:17:46;20.92;;;10.40;;
5762;SDS011;2906;53.282;9.508;2022-11-18T04:18:48;29.17;;;11.57;;
5762;SDS011;2906;53.282;9.508;2022-11-18T04:19:51;22.50;;;10.80;;
5762;SDS011;2906;53.282;9.508;2022-11-18T04:20:52;21.27;;;10.98;;
5762;SDS011;2906;53.282;9.508;2022-11-18T04:21:54;24.45;;;11.70;;
5762;SDS011;2906;53.282;9.508;2022-11-18T04:22:56;20.98;;;10.25;;
5762;SDS011;2906;53.282;9.508;2022-11-18T04:23:58;24.23;;;11.55;;
5762;SDS011;2906;53.282;9.508;2022-11-18T04:24:59;23.00;;;10.68;;
5762;SDS011;2906;53.282;9.508;2022-11-18T04:26:01;30.50;;;12.85;;
5762;SDS011;2906;53.282;9.508;2022-11-18T04:27:03;23.63;;;11.25;;
5762;SDS011;2906;53.282;9.508;2022-11-18T04:28:05;24.05;;;10.80;;
5762;SDS011;2906;53.282;9.508;2022-11-18T04:29:07;22.48;;;10.30;;
5762;SDS011;2906;53.282;9.508;2022-11-18T04:30:09;23.75;;;10.80;;
5762;SDS011;2906;53.282;9.508;2022-11-18T04:31:11;24.92;;;11.73;;
5762;SDS011;2906;53.282;9.508;2022-11-18T04:32:13;25.73;;;11.57;;
5762;SDS011;2906;53.282;9.508;2022-11-18T04:33:14;25.00;;;11.45;;
5762;SDS011;2906;53.282;9.508;2022-11-18T04:34:18;23.60;;;11.77;;
5762;SDS011;2906;53.282;9.508;2022-11-18T04:35:19;23.75;;;11.80;;
5762;SDS011;2906;53.282;9.508;2022-11-18T04:36:21;26.08;;;10.68;;
5762;SDS011;2906;53.282;9.508;2022-11-18T04:37:23;23.65;;;11.10;;
5762;SDS011;2906;53.282;9.508;2022-11-18T04:38:25;22.08;;;10.45;;
5762;SDS011;2906;53.282;9.508;2022-11-18T04:39:26;21.95;;;10.60;;
5762;SDS011;2906;53.282;9.508;2022-11-18T04:40:29;25.52;;;11.90;;
5762;SDS011;2906;53.282;9.508;2022-11-18T04:41:30;25.50;;;11.80;;
5762;SDS011;2906;53.282;9.508;2022-11-18T04:42:46;22.55;;;11.27;;
5762;SDS011;2906;53.282;9.508;2022-11-18T04:43:48;21.60;;;10.82;;
5762;SDS011;2906;53.282;9.508;2022-11-18T04:44:50;24.42;;;11.85;;
5762;SDS011;2906;53.282;9.508;2022-11-18T04:45:52;28.60;;;11.93;;
5762;SDS011;2906;53.282;9.508;2022-11-18T04:46:54;23.30;;;11.50;;
5762;SDS011;2906;53.282;9.508;2022-11-18T04:47:56;26.23;;;12.75;;
5762;SDS011;2906;53.282;9.508;2022-11-18T04:48:58;22.73;;;11.07;;
5762;SDS011;2906;53.282;9.508;2022-11-18T04:50:01;26.98;;;11.85;;
5762;SDS011;2906;53.282;9.508;2022-11-18T04:51:04;25.73;;;12.25;;
5762;SDS011;2906;53.282;9.508;2022-11-18T04:52:05;25.23;;;11.93;;
5762;SDS011;2906;53.282;9.508;2022-11-18T04:53:07;24.05;;;11.30;;
5762;SDS011;2906;53.282;9.508;2022-11-18T04:54:09;26.05;;;12.13;;
5762;SDS011;2906;53.282;9.508;2022-11-18T04:55:12;22.95;;;11.32;;
5762;SDS011;2906;53.282;9.508;2022-11-18T04:56:14;23.27;;;12.10;;
5762;SDS011;2906;53.282;9.508;2022-11-18T04:57:15;25.52;;;12.35;;
5762;SDS011;2906;53.282;9.508;2022-11-18T04:58:17;26.23;;;11.93;;
5762;SDS011;2906;53.282;9.508;2022-11-18T04:59:20;24.55;;;11.40;;
5762;SDS011;2906;53.282;9.508;2022-11-18T05:00:22;23.60;;;12.02;;
5762;SDS011;2906;53.282;9.508;2022-11-18T05:01:24;22.60;;;12.32;;
5762;SDS011;2906;53.282;9.508;2022-11-18T05:02:26;27.85;;;11.68;;
5762;SDS011;2906;53.282;9.508;2022-11-18T05:03:28;25.58;;;12.07;;
5762;SDS011;2906;53.282;9.508;2022-11-18T05:04:30;27.35;;;12.05;;
5762;SDS011;2906;53.282;9.508;2022-11-18T05:05:34;23.95;;;12.43;;
5762;SDS011;2906;53.282;9.508;2022-11-18T05:06:35;24.65;;;12.75;;
5762;SDS011;2906;53.282;9.508;2022-11-18T05:07:37;23.33;;;11.57;;
5762;SDS011;2906;53.282;9.508;2022-11-18T05:08:39;25.75;;;12.55;;
5762;SDS011;2906;53.282;9.508;2022-11-18T05:09:41;23.27;;;11.38;;
5762;SDS011;2906;53.282;9.508;2022-11-18T05:10:44;22.00;;;11.70;;
5762;SDS011;2906;53.282;9.508;2022-11-18T05:11:45;22.40;;;11.45;;
5762;SDS011;2906;53.282;9.508;2022-11-18T05:13:01;23.75;;;12.20;;
5762;SDS011;2906;53.282;9.508;2022-11-18T05:14:02;26.23;;;11.93;;
5762;SDS011;2906;53.282;9.508;2022-11-18T05:15:05;24.98;;;12.05;;
5762;SDS011;2906;53.282;9.508;2022-11-18T05:16:08;22.77;;;11.75;;
5762;SDS011;2906;53.282;9.508;2022-11-18T05:17:09;24.75;;;10.90;;
5762;SDS011;2906;53.282;9.508;2022-11-18T05:18:11;25.92;;;12.35;;
5762;SDS011;2906;53.282;9.508;2022-11-18T05:19:13;25.55;;;12.60;;
5762;SDS011;2906;53.282;9.508;2022-11-18T05:20:15;24.05;;;11.93;;
5762;SDS011;2906;53.282;9.508;2022-11-18T05:21:19;25.13;;;11.50;;
5762;SDS011;2906;53.282;9.508;2022-11-18T05:22:20;22.92;;;11.38;;
5762;SDS011;2906;53.282;9.508;2022-11-18T05:23:22;23.85;;;11.05;;
5762;SDS011;2906;53.282;9.508;2022-11-18T05:24:23;27.40;;;12.20;;
5762;SDS011;2906;53.282;9.508;2022-11-18T05:25:26;23.90;;;12.05;;
5762;SDS011;2906;53.282;9.508;2022-11-18T05:26:27;26.35;;;12.93;;
5762;SDS011;2906;53.282;9.508;2022-11-18T05:27:29;24.27;;;12.00;;
5762;SDS011;2906;53.282;9.508;2022-11-18T05:28:31;25.67;;;12.40;;
5762;SDS011;2906;53.282;9.508;2022-11-18T05:29:33;23.60;;;12.45;;
5762;SDS011;2906;53.282;9.508;2022-11-18T05:30:34;26.73;;;13.45;;
5762;SDS011;2906;53.282;9.508;2022-11-18T05:31:37;27.85;;;13.15;;
5762;SDS011;2906;53.282;9.508;2022-11-18T05:32:38;26.52;;;12.52;;
5762;SDS011;2906;53.282;9.508;2022-11-18T05:33:40;23.58;;;12.05;;
5762;SDS011;2906;53.282;9.508;2022-11-18T05:34:42;27.10;;;12.90;;
5762;SDS011;2906;53.282;9.508;2022-11-18T05:35:44;27.52;;;12.38;;
5762;SDS011;2906;53.282;9.508;2022-11-18T05:36:47;26.17;;;12.23;;
5762;SDS011;2906;53.282;9.508;2022-11-18T05:37:49;23.10;;;11.63;;
5762;SDS011;2906;53.282;9.508;2022-11-18T05:38:50;26.88;;;12.20;;
5762;SDS011;2906;53.282;9.508;2022-11-18T05:39:53;30.90;;;13.98;;
5762;SDS011;2906;53.282;9.508;2022-11-18T05:40:54;27.23;;;13.50;;
5762;SDS011;2906;53.282;9.508;2022-11-18T05:41:56;28.55;;;12.63;;
5762;SDS011;2906;53.282;9.508;2022-11-18T05:43:12;25.58;;;11.20;;
5762;SDS011;2906;53.282;9.508;2022-11-18T05:44:14;26.30;;;12.90;;
5762;SDS011;2906;53.282;9.508;2022-11-18T05:45:15;28.67;;;13.13;;
5762;SDS011;2906;53.282;9.508;2022-11-18T05:46:18;31.23;;;13.75;;
5762;SDS011;2906;53.282;9.508;2022-11-18T05:47:19;26.20;;;12.57;;
5762;SDS011;2906;53.282;9.508;2022-11-18T05:48:24;27.20;;;13.52;;
5762;SDS011;2906;53.282;9.508;2022-11-18T05:49:25;25.70;;;12.90;;
5762;SDS011;2906;53.282;9.508;2022-11-18T05:50:28;27.95;;;12.68;;
5762;SDS011;2906;53.282;9.508;2022-11-18T05:51:29;29.05;;;14.30;;
5762;SDS011;2906;53.282;9.508;2022-11-18T05:52:33;29.27;;;13.60;;
5762;SDS011;2906;53.282;9.508;2022-11-18T05:53:34;32.80;;;15.77;;
5762;SDS011;2906;53.282;9.508;2022-11-18T05:54:37;26.48;;;13.48;;
5762;SDS011;2906;53.282;9.508;2022-11-18T05:55:39;29.85;;;13.25;;
5762;SDS011;2906;53.282;9.508;2022-11-18T05:56:44;30.08;;;14.98;;
5762;SDS011;2906;53.282;9.508;2022-11-18T05:57:45;29.55;;;14.23;;
5762;SDS011;2906;53.282;9.508;2022-11-18T05:58:47;28.25;;;13.27;;
5762;SDS011;2906;53.282;9.508;2022-11-18T05:59:49;28.38;;;14.20;;
5762;SDS011;2906;53.282;9.508;2022-11-18T06:00:51;27.13;;;13.43;;
5762;SDS011;2906;53.282;9.508;2022-11-18T06:01:55;32.45;;;14.75;;
5762;SDS011;2906;53.282;9.508;2022-11-18T06:02:58;33.55;;;15.20;;
5762;SDS011;2906;53.282;9.508;2022-11-18T06:04:00;29.98;;;14.60;;
5762;SDS011;2906;53.282;9.508;2022-11-18T06:05:04;31.20;;;14.98;;
5762;SDS011;2906;53.282;9.508;2022-11-18T06:06:06;28.70;;;14.43;;
5762;SDS011;2906;53.282;9.508;2022-11-18T06:07:09;25.92;;;13.63;;
5762;SDS011;2906;53.282;9.508;2022-11-18T06:08:14;29.48;;;14.07;;
5762;SDS011;2906;53.282;9.508;2022-11-18T06:09:19;29.83;;;14.63;;
5762;SDS011;2906;53.282;9.508;2022-11-18T06:10:21;28.10;;;14.15;;
5762;SDS011;2906;53.282;9.508;2022-11-18T06:11:25;29.80;;;14.57;;
5762;SDS011;2906;53.282;9.508;2022-11-18T06:12:27;32.45;;;16.27;;
5762;SDS011;2906;53.282;9.508;2022-11-18T06:13:30;34.53;;;15.50;;
5762;SDS011;2906;53.282;9.508;2022-11-18T06:14:36;28.90;;;14.65;;
5762;SDS011;2906;53.282;9.508;2022-11-18T06:15:40;31.73;;;14.95;;
5762;SDS011;2906;53.282;9.508;2022-11-18T06:16:43;30.48;;;14.20;;
5762;SDS011;2906;53.282;9.508;2022-11-18T06:17:47;31.42;;;15.32;;
5762;SDS011;2906;53.282;9.508;2022-11-18T06:18:50;30.95;;;14.07;;
5762;SDS011;2906;53.282;9.508;2022-11-18T06:19:53;28.35;;;14.60;;
5762;SDS011;2906;53.282;9.508;2022-11-18T06:20:55;29.92;;;14.80;;
5762;SDS011;2906;53.282;9.508;2022-11-18T06:21:59;36.42;;;15.80;;
5762;SDS011;2906;53.282;9.508;2022-11-18T06:23:02;28.83;;;14.63;;
5762;SDS011;2906;53.282;9.508;2022-11-18T06:24:05;32.35;;;14.50;;
5762;SDS011;2906;53.282;9.508;2022-11-18T06:25:09;31.05;;;15.20;;
5762;SDS011;2906;53.282;9.508;2022-11-18T06:26:11;32.38;;;14.50;;
5762;SDS011;2906;53.282;9.508;2022-11-18T06:27:14;31.90;;;15.32;;